Caribbean Princess — ZCDG8 — position and weather

sailwx.info

Track history (hours):
 
Tides and Currents Weather Stations Pressure Air Temp Water Temp Dewpoint Dewpoint Depression Visibility Wind Speed Wind Dir Waves Ship Positions

Caribbean Princess

Operator: Princess Cruises

Last reported at 2017-Apr-28 02:00 UTC. Time now 2017-Apr-28 02:22 UTC.
Position N 51°58' E 003°51'.

Type: Passenger vessel. MMSI: 310423000.

Date/timePositionNaut miles runAvg speedWind from/ knotsBaromVisibWave heightAir tempDewpointWater temp
2017-Apr-28 02:00N 51°58' E 003°51'3 5.5
2017-Apr-28 01:30N 51°60' E 003°47'2 4.8
2017-Apr-28 01:01N 52°02' E 003°46'3 6.5
2017-Apr-28 00:30N 52°05' E 003°46'5 9.2
2017-Apr-28 00:01N 52°10' E 003°46'510.3
2017-Apr-27 23:31N 52°15' E 003°46'510.6
2017-Apr-27 23:00N 52°20' E 003°48'4263.0
2017-Apr-27 23:00N 52°24' E 003°48'2 3.1 270 / 211013.210.8 7.0 3.511.0
2017-Apr-27 22:30N 52°25' E 003°49'510.0
2017-Apr-27 22:01N 52°30' E 003°51'611.0
2017-Apr-27 21:30N 52°36' E 003°52'510.9
2017-Apr-27 21:00N 52°41' E 003°55'510.8
2017-Apr-27 20:30N 52°46' E 003°57'510.9
2017-Apr-27 20:01N 52°51' E 003°59'510.5
2017-Apr-27 19:30N 52°56' E 004°01'5 9.1
2017-Apr-27 19:01N 52°60' E 004°06'4 8.8
2017-Apr-27 18:30N 53°03' E 004°11'4 8.4
2017-Apr-27 17:59N 53°06' E 004°17'4 8.1
2017-Apr-27 17:30N 53°08' E 004°22'4 7.9
2017-Apr-27 17:00N 53°12' E 004°24'7792.2
2017-Apr-27 17:00N 53°06' E 004°18'111 9.2 250 / 281013.210.8 7.0 5.911.0
2017-Apr-27 05:00N 53°54' E 007°06'2214.4 300 / 221014.310.8 5.5 0.3 9.0
2017-Apr-27 03:28N 54°02' E 007°41'612.0
2017-Apr-27 03:00N 54°01' E 007°50'612.2
2017-Apr-27 02:30N 54°01' E 008°01'612.2
2017-Apr-27 02:00N 54°00' E 008°11'714.2
2017-Apr-27 01:30N 53°59' E 008°23'817.0
2017-Apr-27 01:01N 53°57' E 008°37'713.1
2017-Apr-27 00:30N 53°52' E 008°44'510.5
2017-Apr-27 00:00N 53°50' E 008°52'713.8
2017-Apr-26 23:30N 53°52' E 009°04'713.2
2017-Apr-26 23:00N 53°53' E 009°15'611.4
2017-Apr-26 22:30N 53°49' E 009°22'612.2
2017-Apr-26 22:00N 53°44' E 009°27'612.2
2017-Apr-26 21:30N 53°38' E 009°32'713.8
2017-Apr-26 21:00N 53°34' E 009°41'611.5
2017-Apr-26 20:30N 53°33' E 009°51'3 6.6
2017-Apr-26 20:00N 53°33' E 009°56'0 0.1
2017-Apr-26 19:29N 53°33' E 009°56'0 0.0
2017-Apr-26 18:59N 53°33' E 009°56'0 0.0
2017-Apr-26 18:29N 53°33' E 009°56'0 0.0
2017-Apr-26 17:59N 53°33' E 009°56'0 0.0
2017-Apr-26 17:29N 53°33' E 009°56'0 0.0
2017-Apr-26 16:59N 53°33' E 009°56'0 0.0
2017-Apr-26 16:29N 53°33' E 009°56'0 0.0
2017-Apr-26 15:59N 53°33' E 009°56'0 0.0
2017-Apr-26 15:29N 53°33' E 009°56'0 0.0
2017-Apr-26 14:59N 53°33' E 009°56'0 0.0
2017-Apr-26 14:29N 53°33' E 009°56'0 0.0
2017-Apr-26 13:28N 53°33' E 009°56'0 0.0
2017-Apr-26 12:58N 53°33' E 009°56'0 0.0
2017-Apr-26 12:28N 53°33' E 009°56'0 0.0
2017-Apr-26 11:58N 53°33' E 009°56'0 0.0
2017-Apr-26 11:28N 53°33' E 009°56'0 0.0
2017-Apr-26 10:58N 53°33' E 009°56'0 0.0
2017-Apr-26 10:25N 53°33' E 009°56'0 0.0
2017-Apr-26 09:58N 53°33' E 009°56'0 0.0
2017-Apr-26 09:25N 53°33' E 009°56'0 0.0
2017-Apr-26 08:58N 53°33' E 009°56'0 0.0
2017-Apr-26 08:28N 53°33' E 009°56'0 0.0
2017-Apr-26 07:58N 53°33' E 009°56'0 0.0
2017-Apr-26 07:28N 53°33' E 009°56'0 0.0
2017-Apr-26 06:58N 53°33' E 009°56'0 0.0
2017-Apr-26 06:28N 53°33' E 009°56'0 0.0
2017-Apr-26 05:58N 53°33' E 009°56'0 0.0
2017-Apr-26 05:28N 53°33' E 009°56'0 0.0
2017-Apr-26 04:58N 53°33' E 009°56'0 0.0
2017-Apr-26 04:28N 53°33' E 009°56'0 0.9
2017-Apr-26 04:00N 53°33' E 009°57'3 6.1
2017-Apr-26 03:30N 53°33' E 009°52'4 7.9
2017-Apr-26 03:00N 53°34' E 009°45'611.7
2017-Apr-26 02:30N 53°36' E 009°36'611.1
2017-Apr-26 02:01N 53°40' E 009°31'612.9
2017-Apr-26 01:31N 53°45' E 009°24'815.4
2017-Apr-26 01:00N 53°52' E 009°17'611.7
2017-Apr-26 00:30N 53°53' E 009°07'510.2
2017-Apr-26 00:00N 53°51' E 008°59'611.8
2017-Apr-25 23:30N 53°50' E 008°49'511.0
2017-Apr-25 23:00N 53°54' E 008°42'612.6
2017-Apr-25 22:30N 53°58' E 008°34'713.8
2017-Apr-25 22:00N 53°59' E 008°23'713.7
2017-Apr-25 21:30N 53°60' E 008°11'510.3
2017-Apr-25 21:00N 53°59' E 008°02'612.9
2017-Apr-25 20:30N 53°58' E 007°52'713.9
2017-Apr-25 20:00N 53°56' E 007°40'4715.6
2017-Apr-25 17:00N 53°42' E 006°24'4121.3 280 / 181006.610.8 14.013.112.0
2017-Apr-25 15:05N 53°32' E 005°17'217.6
2017-Apr-25 14:59N 53°32' E 005°15'917.4
2017-Apr-25 14:29N 53°29' E 005°01'2116.0
2017-Apr-25 13:10N 53°15' E 004°34'317.0
2017-Apr-25 13:00N 53°12' E 004°32'816.8
2017-Apr-25 12:30N 53°05' E 004°25'816.7
2017-Apr-25 12:01N 52°57' E 004°20'816.3
2017-Apr-25 11:30N 52°50' E 004°15'816.1
2017-Apr-25 11:01N 52°44' E 004°06'816.2
2017-Apr-25 10:31N 52°40' E 003°55'816.0
2017-Apr-25 09:59N 52°35' E 003°44'5914.7
2017-Apr-25 06:01N 51°49' E 002°42'115.4
2017-Apr-25 05:56N 51°49' E 002°41'715.6
2017-Apr-25 05:29N 51°44' E 002°33'715.9
2017-Apr-25 05:01N 51°38' E 002°24'5296.0
2017-Apr-25 05:00N 51°42' E 002°30'1327.1 330 / 361008.910.8 5.5-1.312.0
2017-Apr-25 04:30N 51°32' E 002°16'816.8
2017-Apr-25 04:00N 51°26' E 002°07'815.8
2017-Apr-25 03:30N 51°18' E 002°07'816.1
2017-Apr-25 03:01N 51°12' E 001°58'917.2
2017-Apr-25 02:31N 51°08' E 001°46'917.5
2017-Apr-25 02:01N 51°02' E 001°36'918.1
2017-Apr-25 01:31N 50°55' E 001°27'917.5
2017-Apr-25 01:00N 50°46' E 001°22'1316.8
2017-Apr-25 00:12N 50°36' E 001°08'717.5
2017-Apr-24 23:48N 50°32' E 000°60'617.7
2017-Apr-24 23:29N 50°30' E 000°51'1117.7
2017-Apr-24 22:51N 50°28' E 000°34'617.6
2017-Apr-24 22:30N 50°25' E 000°25'917.9
2017-Apr-24 22:00N 50°23' E 000°12'91025.9
2017-Apr-24 22:00N 50°18' E 000°00'3 6.0 350 / 301011.210.8 10.5 6.212.0
2017-Apr-24 21:31N 50°21' W 000°02'918.5
2017-Apr-24 21:01N 50°18' W 000°16'1019.4
2017-Apr-24 20:31N 50°16' W 000°31'1020.3
2017-Apr-24 20:00N 50°13' W 000°46'1020.8
2017-Apr-24 19:31N 50°10' W 001°02'1121.2
2017-Apr-24 19:00N 50°08' W 001°18'1121.5
2017-Apr-24 18:30N 50°05' W 001°34'1121.7
2017-Apr-24 18:00N 50°02' W 001°50'101154.3
2017-Apr-24 18:00N 49°54' W 002°00'2416.1 300 / 121014.210.8 12.010.112.0
2017-Apr-24 16:32N 49°54' W 002°37'119.8
2017-Apr-24 16:28N 49°54' W 002°39'919.7
2017-Apr-24 16:00N 49°51' W 002°52'1019.4
2017-Apr-24 15:29N 49°49' W 003°07'919.2
2017-Apr-24 15:01N 49°46' W 003°21'918.7
2017-Apr-24 14:30N 49°46' W 003°35'2218.3
2017-Apr-24 13:19N 49°47' W 004°09'617.9
2017-Apr-24 13:00N 49°47' W 004°18'917.8
2017-Apr-24 12:30N 49°47' W 004°31'917.7
2017-Apr-24 12:00N 49°47' W 004°45'1017.6
2017-Apr-24 11:26N 49°48' W 005°01'717.2
2017-Apr-24 11:00N 49°48' W 005°12'3116.8
2017-Apr-24 09:09N 49°51' W 006°00'316.8
2017-Apr-24 08:59N 49°54' W 006°01'815.4
2017-Apr-24 08:29N 50°02' W 006°01'919.3
2017-Apr-24 08:01N 50°11' W 006°00'1019.4
2017-Apr-24 07:29N 50°21' W 006°00'919.2
2017-Apr-24 07:00N 50°30' W 006°00'1018.9
2017-Apr-24 06:30N 50°40' W 006°00'918.6
2017-Apr-24 06:00N 50°49' W 005°60'6944.8
2017-Apr-24 06:00N 50°54' W 005°54'2815.3 270 / 101019.710.8 11.0 9.012.0
2017-Apr-24 04:11N 51°21' W 006°00'617.5
2017-Apr-24 03:52N 51°27' W 005°60'717.6
2017-Apr-24 03:30N 51°34' W 005°60'1117.8
2017-Apr-24 02:53N 51°44' W 005°58'718.3
2017-Apr-24 02:30N 51°51' W 005°55'1318.9
2017-Apr-24 01:50N 52°03' W 005°51'619.5
2017-Apr-24 01:30N 52°10' W 005°50'1020.0
2017-Apr-24 01:01N 52°20' W 005°47'1020.2
2017-Apr-24 00:30N 52°30' W 005°44'4319.2
2017-Apr-23 22:16N 53°13' W 005°43'518.9
2017-Apr-23 22:01N 53°17' W 005°48'917.5
2017-Apr-23 21:31N 53°21' W 006°01'510.1
2017-Apr-23 21:00N 53°21' W 006°09'2 2.9
2017-Apr-23 20:19N 53°21' W 006°13'0 0.0
2017-Apr-23 19:46N 53°21' W 006°13'0 0.0
2017-Apr-23 19:16N 53°21' W 006°13'0 0.0
2017-Apr-23 18:53N 53°21' W 006°13'0 0.0
2017-Apr-23 18:05N 53°21' W 006°13'0 0.0
2017-Apr-23 17:59N 53°21' W 006°13'0 0.0
2017-Apr-23 17:29N 53°21' W 006°13'0 0.0
2017-Apr-23 16:51N 53°21' W 006°13'0 0.0
2017-Apr-23 16:14N 53°21' W 006°13'0 0.0
2017-Apr-23 15:59N 53°21' W 006°13'0 0.0
2017-Apr-23 15:28N 53°21' W 006°13'0 0.0
2017-Apr-23 14:48N 53°21' W 006°13'0 0.0
2017-Apr-23 13:54N 53°21' W 006°13'0 0.0
2017-Apr-23 13:29N 53°21' W 006°13'0 0.0
2017-Apr-23 12:59N 53°21' W 006°13'0 0.0
2017-Apr-23 12:22N 53°21' W 006°13'0 0.0
2017-Apr-23 11:57N 53°21' W 006°13'0 0.0
2017-Apr-23 11:28N 53°21' W 006°13'0 0.0
2017-Apr-23 10:42N 53°21' W 006°13'0 0.0
2017-Apr-23 10:29N 53°21' W 006°13'0 0.0
2017-Apr-23 09:46N 53°21' W 006°13'0 0.0
2017-Apr-23 09:16N 53°21' W 006°13'0 0.0
2017-Apr-23 08:43N 53°21' W 006°13'0 0.0
2017-Apr-23 08:04N 53°21' W 006°13'0 0.0
2017-Apr-23 07:58N 53°21' W 006°13'0 0.0
2017-Apr-23 07:27N 53°21' W 006°13'0 0.3
2017-Apr-23 07:00N 53°21' W 006°13'1 2.6
2017-Apr-23 06:30N 53°21' W 006°11'5 9.2
2017-Apr-23 06:00N 53°20' W 006°03'612.0
2017-Apr-23 05:30N 53°19' W 005°53'815.0
2017-Apr-23 05:00N 53°14' W 005°44'916.8
2017-Apr-23 04:30N 53°07' W 005°35'3516.8
2017-Apr-23 02:26N 52°34' W 005°48'613.5
2017-Apr-23 02:00N 52°28' W 005°51'713.1
2017-Apr-23 01:29N 52°22' W 005°54'612.8
2017-Apr-23 01:00N 52°16' W 005°57'612.3
2017-Apr-23 00:30N 52°10' W 005°59'612.0
2017-Apr-23 00:00N 52°05' W 006°05'262009.4
2017-Apr-23 00:00N 51°42' W 006°24'2142.8 270 / 41029.710.8 11.0 9.012.0
2017-Apr-22 23:30N 52°02' W 006°14'612.6
2017-Apr-22 23:00N 52°00' W 006°24'612.8
2017-Apr-22 22:30N 51°59' W 006°34'713.3
2017-Apr-22 22:00N 51°57' W 006°44'713.5
2017-Apr-22 21:30N 51°55' W 006°55'713.8
2017-Apr-22 21:00N 51°54' W 007°06'713.9
2017-Apr-22 20:30N 51°52' W 007°17'713.9
2017-Apr-22 20:00N 51°50' W 007°28'714.0
2017-Apr-22 19:31N 51°49' W 007°39'714.0
2017-Apr-22 19:00N 51°47' W 007°50'5352.2
2017-Apr-22 19:00N 51°42' W 007°48'817.2 030 / 41029.710.8 13.0 6.812.0
2017-Apr-22 18:30N 51°45' W 008°00'713.7
2017-Apr-22 18:00N 51°44' W 008°11'510.6
2017-Apr-22 17:31N 51°48' W 008°16'3 6.1
2017-Apr-22 17:00N 51°51' W 008°18'0 0.0
2017-Apr-22 16:29N 51°51' W 008°18'0 0.0
2017-Apr-22 15:59N 51°51' W 008°18'0 0.0
2017-Apr-22 15:29N 51°51' W 008°18'0 0.0
2017-Apr-22 14:59N 51°51' W 008°18'0 0.0
2017-Apr-22 14:29N 51°51' W 008°18'0 0.0
2017-Apr-22 13:29N 51°51' W 008°18'0 0.0
2017-Apr-22 12:59N 51°51' W 008°18'0 0.0
2017-Apr-22 12:29N 51°51' W 008°18'0 0.0
2017-Apr-22 11:59N 51°51' W 008°18'0 0.0
2017-Apr-22 11:29N 51°51' W 008°18'0 0.0
2017-Apr-22 10:59N 51°51' W 008°18'0 0.0
2017-Apr-22 10:29N 51°51' W 008°18'0 0.0
2017-Apr-22 09:59N 51°51' W 008°18'0 0.0
2017-Apr-22 09:29N 51°51' W 008°18'0 0.0
2017-Apr-22 08:59N 51°51' W 008°18'0 0.0
2017-Apr-22 08:29N 51°51' W 008°18'0 0.0
2017-Apr-22 07:59N 51°51' W 008°18'0 0.0
2017-Apr-22 07:29N 51°51' W 008°18'0 0.0
2017-Apr-22 06:59N 51°51' W 008°18'0 0.0
2017-Apr-22 06:29N 51°51' W 008°18'0 0.0
2017-Apr-22 05:59N 51°51' W 008°18'0 0.3
2017-Apr-22 05:30N 51°51' W 008°18'3 6.8
2017-Apr-22 05:01N 51°48' W 008°16'611.9
2017-Apr-22 04:30N 51°42' W 008°12'1019.9
2017-Apr-22 04:00N 51°35' W 008°00'1020.1
2017-Apr-22 03:29N 51°28' W 007°48'1019.9
2017-Apr-22 03:00N 51°22' W 007°37'1019.7
2017-Apr-22 02:30N 51°15' W 007°25'1119.5
2017-Apr-22 01:57N 51°09' W 007°11'7135.9
2017-Apr-22 00:00N 50°18' W 005°54'31927.6 050 / 221031.310.8 11.0 9.012.0
2017-Apr-21 23:57N 50°41' W 006°28'919.7
2017-Apr-21 23:30N 50°35' W 006°17'1019.9
2017-Apr-21 22:59N 50°28' W 006°05'919.7
2017-Apr-21 22:30N 50°21' W 005°55'1020.3
2017-Apr-21 22:00N 50°11' W 005°54'1020.2
2017-Apr-21 21:30N 50°01' W 005°53'917.8
2017-Apr-21 21:00N 49°52' W 005°48'1020.3
2017-Apr-21 20:30N 49°50' W 005°33'1020.3
2017-Apr-21 20:00N 49°48' W 005°18'1020.2
2017-Apr-21 19:30N 49°45' W 005°02'1020.2
2017-Apr-21 19:00N 49°43' W 004°47'1120.2
2017-Apr-21 18:28N 49°40' W 004°31'613.0
2017-Apr-21 18:00N 49°36' W 004°24'6259.7 290 / 131031.310.8 13.0 6.812.0
2017-Apr-21 17:58N 49°38' W 004°16'920.2
2017-Apr-21 17:30N 49°36' W 004°01'1420.1
2017-Apr-21 16:49N 49°33' W 003°41'719.9
2017-Apr-21 16:28N 49°31' W 003°30'1319.9
2017-Apr-21 15:49N 49°28' W 003°11'619.8
2017-Apr-21 15:30N 49°27' W 003°02'21 2.7
2017-Apr-21 07:43N 49°28' W 002°30'0 0.2
2017-Apr-21 07:28N 49°28' W 002°30'0 0.1
2017-Apr-21 06:58N 49°28' W 002°30'0 0.0
2017-Apr-21 06:28N 49°28' W 002°30'0 0.1
2017-Apr-21 05:58N 49°28' W 002°30'0 0.0
2017-Apr-21 05:30N 49°28' W 002°30'0 0.1
2017-Apr-21 04:50N 49°28' W 002°30'2 7.1
2017-Apr-21 04:30N 49°25' W 002°30'5 9.3
2017-Apr-21 04:00N 49°23' W 002°36'3110.2
2017-Apr-21 01:01N 49°50' W 002°56'013.3
2017-Apr-21 01:00N 49°51' W 002°56'612.6
2017-Apr-21 00:30N 49°57' W 002°56'612.6
2017-Apr-21 00:00N 49°59' W 002°47'15981.9
2017-Apr-21 00:00N 50°00' W 002°24'713.0 270 / 51034.710.8 10.0 5.612.0
2017-Apr-20 23:25N 50°01' W 002°35'1213.3
2017-Apr-20 22:29N 50°06' W 002°18'3917.0
2017-Apr-20 20:10N 50°25' W 001°24'316.9
2017-Apr-20 20:00N 50°27' W 001°20'817.0
2017-Apr-20 19:30N 50°31' W 001°09'815.5
2017-Apr-20 19:00N 50°36' W 000°60'612.9
2017-Apr-20 18:30N 50°43' W 000°59'713.7
2017-Apr-20 18:00N 50°46' W 001°09'713.2
2017-Apr-20 17:30N 50°47' W 001°19'4 8.1
2017-Apr-20 17:00N 50°51' W 001°21'3 6.3
2017-Apr-20 16:31N 50°53' W 001°24'0 0.0
2017-Apr-20 15:58N 50°53' W 001°24'0 0.0
2017-Apr-20 15:28N 50°53' W 001°24'0 0.0
2017-Apr-20 14:55N 50°53' W 001°24'0 0.0
2017-Apr-20 14:28N 50°53' W 001°24'0 0.0
2017-Apr-20 13:28N 50°53' W 001°24'0 0.0
2017-Apr-20 12:55N 50°53' W 001°24'0 0.0
2017-Apr-20 12:28N 50°53' W 001°24'0 0.0
2017-Apr-20 11:58N 50°53' W 001°24'0 0.0
2017-Apr-20 11:28N 50°53' W 001°24'0 0.0
2017-Apr-20 10:58N 50°53' W 001°24'0 0.0
2017-Apr-20 10:28N 50°53' W 001°24'0 0.0
2017-Apr-20 09:58N 50°53' W 001°24'0 0.0
2017-Apr-20 09:28N 50°53' W 001°24'0 0.0
2017-Apr-20 08:58N 50°53' W 001°24'0 0.0
2017-Apr-20 08:28N 50°53' W 001°24'0 0.0
2017-Apr-20 07:58N 50°53' W 001°24'0 0.0
2017-Apr-20 07:28N 50°53' W 001°24'0 0.0
2017-Apr-20 06:58N 50°53' W 001°24'0 0.0
2017-Apr-20 06:28N 50°53' W 001°24'0 0.0
2017-Apr-20 05:58N 50°53' W 001°24'0 0.0
2017-Apr-20 05:28N 50°53' W 001°24'0 0.0
2017-Apr-20 04:58N 50°53' W 001°24'0 0.0
2017-Apr-20 04:30N 50°53' W 001°24'0 0.4
2017-Apr-20 04:01N 50°53' W 001°24'2 3.3
2017-Apr-20 03:31N 50°52' W 001°22'4 7.8
2017-Apr-20 03:01N 50°49' W 001°18'4 7.6
2017-Apr-20 02:31N 50°46' W 001°15'713.7
2017-Apr-20 02:01N 50°44' W 001°05'611.5
2017-Apr-20 01:30N 50°40' W 000°58'611.6
2017-Apr-20 01:00N 50°35' W 000°60'612.1
2017-Apr-20 00:30N 50°29' W 000°57'611.9
2017-Apr-20 00:00N 50°23' W 000°53'1812.0
2017-Apr-19 22:31N 50°06' W 000°46'013.6
2017-Apr-19 22:30N 50°06' W 000°46'713.7
2017-Apr-19 22:00N 49°59' W 000°43'713.0
2017-Apr-19 21:30N 49°54' W 000°38'714.0
2017-Apr-19 21:01N 49°48' W 000°33'714.4
2017-Apr-19 20:31N 49°42' W 000°26'714.0
2017-Apr-19 20:01N 49°36' W 000°20'713.2
2017-Apr-19 19:31N 49°33' W 000°11'612.2
2017-Apr-19 19:00N 49°31' W 000°02'611.5
2017-Apr-19 18:30N 49°29' E 000°06'0 0.3
2017-Apr-19 17:58N 49°29' E 000°06'0 0.0
2017-Apr-19 17:28N 49°29' E 000°06'0 0.0
2017-Apr-19 16:58N 49°29' E 000°06'0 0.0
2017-Apr-19 16:30N 49°29' E 000°06'0 0.0
2017-Apr-19 16:00N 49°29' E 000°06'0 0.0
2017-Apr-19 15:29N 49°29' E 000°06'0 0.0
2017-Apr-19 14:59N 49°29' E 000°06'0 0.0
2017-Apr-19 14:29N 49°29' E 000°06'0 0.0
2017-Apr-19 13:25N 49°29' E 000°06'0 0.0
2017-Apr-19 12:58N 49°29' E 000°06'0 0.0
2017-Apr-19 12:25N 49°29' E 000°06'0 0.0
2017-Apr-19 11:56N 49°29' E 000°06'0 0.0
2017-Apr-19 11:28N 49°29' E 000°06'0 0.0
2017-Apr-19 10:59N 49°29' E 000°06'0 0.0
2017-Apr-19 10:28N 49°29' E 000°06'0 0.0
2017-Apr-19 09:59N 49°29' E 000°06'0 0.0
2017-Apr-19 09:30N 49°29' E 000°06'0 0.0
2017-Apr-19 08:58N 49°29' E 000°06'0 0.0
2017-Apr-19 08:27N 49°29' E 000°06'0 0.0
2017-Apr-19 07:59N 49°29' E 000°06'0 0.0
2017-Apr-19 07:30N 49°29' E 000°06'0 0.0
2017-Apr-19 07:00N 49°29' E 000°06'0 0.0
2017-Apr-19 06:30N 49°29' E 000°06'0 0.0
2017-Apr-19 06:00N 49°29' E 000°06'0 0.0
2017-Apr-19 05:29N 49°29' E 000°06'0 0.0
2017-Apr-19 04:59N 49°29' E 000°06'0 0.1
2017-Apr-19 04:31N 49°29' E 000°06'1 2.4
2017-Apr-19 04:00N 49°29' E 000°05'612.7
2017-Apr-19 03:30N 49°31' W 000°05'713.8
2017-Apr-19 03:01N 49°33' W 000°15'816.2
2017-Apr-19 02:31N 49°36' W 000°26'815.7
2017-Apr-19 02:01N 49°40' W 000°37'1020.1
2017-Apr-19 01:31N 49°44' W 000°51'1121.4
2017-Apr-19 01:01N 49°48' W 001°06'5521.8
2017-Apr-18 22:28N 49°51' W 002°32'1320.8
2017-Apr-18 21:50N 49°49' W 002°52'1120.6
2017-Apr-18 21:19N 49°48' W 003°08'620.1
2017-Apr-18 21:00N 49°49' W 003°18'1019.9
2017-Apr-18 20:30N 49°50' W 003°33'713.2
2017-Apr-18 20:00N 49°50' W 003°44'611.1
2017-Apr-18 19:30N 49°52' W 003°52'1119.9
2017-Apr-18 18:57N 49°55' W 004°08'919.2
2017-Apr-18 18:30N 49°58' W 004°21'1019.6
2017-Apr-18 18:00N 50°01' W 004°35'161021.0
2017-Apr-18 18:00N 49°54' W 004°12'2653.9 100 / 231032.727.0 10.0 5.612.0
2017-Apr-18 17:30N 50°04' W 004°50'816.0
2017-Apr-18 17:00N 50°07' W 005°01'1 2.5
2017-Apr-18 16:30N 50°08' W 005°02'0 0.1
2017-Apr-18 15:24N 50°08' W 005°02'0 0.0
2017-Apr-18 15:00N 50°08' W 005°02'0 0.0
2017-Apr-18 14:27N 50°08' W 005°02'0 0.0
2017-Apr-18 13:26N 50°08' W 005°02'0 0.0
2017-Apr-18 12:59N 50°08' W 005°02'0 0.1
2017-Apr-18 12:20N 50°08' W 005°02'0 0.1
2017-Apr-18 11:59N 50°08' W 005°02'0 0.0
2017-Apr-18 11:17N 50°08' W 005°02'0 0.0
2017-Apr-18 10:47N 50°08' W 005°02'0 0.0
2017-Apr-18 10:20N 50°08' W 005°02'0 0.0
2017-Apr-18 09:56N 50°08' W 005°02'0 0.0
2017-Apr-18 09:29N 50°08' W 005°02'0 0.0
2017-Apr-18 08:50N 50°08' W 005°02'0 0.1
2017-Apr-18 08:29N 50°08' W 005°02'0 0.0
2017-Apr-18 07:59N 50°08' W 005°02'0 0.0
2017-Apr-18 07:29N 50°08' W 005°02'0 0.0
2017-Apr-18 06:53N 50°08' W 005°02'0 0.0
2017-Apr-18 06:29N 50°08' W 005°02'0 0.0
2017-Apr-18 05:59N 50°08' W 005°02'0 0.2
2017-Apr-18 05:30N 50°08' W 005°02'4 8.0
2017-Apr-18 05:00N 50°04' W 005°00'611.3
2017-Apr-18 04:30N 49°59' W 004°59'714.2
2017-Apr-18 04:00N 49°53' W 005°06'815.7
2017-Apr-18 03:28N 49°51' W 005°18'1940.2
2017-Apr-18 03:00N 49°48' W 005°48'838.1 020 / 181027.510.8 9.5 6.311.0
2017-Apr-18 02:46N 49°51' W 005°36'  
Track history (hours):
 
Tides and Currents Weather Stations Pressure Air Temp Water Temp Dewpoint Dewpoint Depression Visibility Wind Speed Wind Dir Waves Ship Positions

Caribbean Princess

Operator: Princess Cruises

Last reported at 2017-Apr-28 02:00 UTC. Time now 2017-Apr-28 02:22 UTC.
Position N 51°58' E 003°51'.

Type: Passenger vessel. MMSI: 310423000.

Date/timePositionNaut miles runAvg speedWind from/ knotsBaromVisibWave heightAir tempDewpointWater temp
2017-Apr-28 02:00N 51°58' E 003°51'3 5.5
2017-Apr-28 01:30N 51°60' E 003°47'2 4.8
2017-Apr-28 01:01N 52°02' E 003°46'3 6.5
2017-Apr-28 00:30N 52°05' E 003°46'5 9.2
2017-Apr-28 00:01N 52°10' E 003°46'510.3
2017-Apr-27 23:31N 52°15' E 003°46'510.6
2017-Apr-27 23:00N 52°20' E 003°48'4263.0
2017-Apr-27 23:00N 52°24' E 003°48'2 3.1 270 / 211013.210.8 7.0 3.511.0
2017-Apr-27 22:30N 52°25' E 003°49'510.0
2017-Apr-27 22:01N 52°30' E 003°51'611.0
2017-Apr-27 21:30N 52°36' E 003°52'510.9
2017-Apr-27 21:00N 52°41' E 003°55'510.8
2017-Apr-27 20:30N 52°46' E 003°57'510.9
2017-Apr-27 20:01N 52°51' E 003°59'510.5
2017-Apr-27 19:30N 52°56' E 004°01'5 9.1
2017-Apr-27 19:01N 52°60' E 004°06'4 8.8
2017-Apr-27 18:30N 53°03' E 004°11'4 8.4
2017-Apr-27 17:59N 53°06' E 004°17'4 8.1
2017-Apr-27 17:30N 53°08' E 004°22'4 7.9
2017-Apr-27 17:00N 53°12' E 004°24'7792.2
2017-Apr-27 17:00N 53°06' E 004°18'111 9.2 250 / 281013.210.8 7.0 5.911.0
2017-Apr-27 05:00N 53°54' E 007°06'2214.4 300 / 221014.310.8 5.5 0.3 9.0
2017-Apr-27 03:28N 54°02' E 007°41'612.0
2017-Apr-27 03:00N 54°01' E 007°50'612.2
2017-Apr-27 02:30N 54°01' E 008°01'612.2
2017-Apr-27 02:00N 54°00' E 008°11'714.2
2017-Apr-27 01:30N 53°59' E 008°23'817.0
2017-Apr-27 01:01N 53°57' E 008°37'713.1
2017-Apr-27 00:30N 53°52' E 008°44'510.5
2017-Apr-27 00:00N 53°50' E 008°52'713.8
2017-Apr-26 23:30N 53°52' E 009°04'713.2
2017-Apr-26 23:00N 53°53' E 009°15'611.4
2017-Apr-26 22:30N 53°49' E 009°22'612.2
2017-Apr-26 22:00N 53°44' E 009°27'612.2
2017-Apr-26 21:30N 53°38' E 009°32'713.8
2017-Apr-26 21:00N 53°34' E 009°41'611.5
2017-Apr-26 20:30N 53°33' E 009°51'3 6.6
2017-Apr-26 20:00N 53°33' E 009°56'0 0.1
2017-Apr-26 19:29N 53°33' E 009°56'0 0.0
2017-Apr-26 18:59N 53°33' E 009°56'0 0.0
2017-Apr-26 18:29N 53°33' E 009°56'0 0.0
2017-Apr-26 17:59N 53°33' E 009°56'0 0.0
2017-Apr-26 17:29N 53°33' E 009°56'0 0.0
2017-Apr-26 16:59N 53°33' E 009°56'0 0.0
2017-Apr-26 16:29N 53°33' E 009°56'0 0.0
2017-Apr-26 15:59N 53°33' E 009°56'0 0.0
2017-Apr-26 15:29N 53°33' E 009°56'0 0.0
2017-Apr-26 14:59N 53°33' E 009°56'0 0.0
2017-Apr-26 14:29N 53°33' E 009°56'0 0.0
2017-Apr-26 13:28N 53°33' E 009°56'0 0.0
2017-Apr-26 12:58N 53°33' E 009°56'0 0.0
2017-Apr-26 12:28N 53°33' E 009°56'0 0.0
2017-Apr-26 11:58N 53°33' E 009°56'0 0.0
2017-Apr-26 11:28N 53°33' E 009°56'0 0.0
2017-Apr-26 10:58N 53°33' E 009°56'0 0.0
2017-Apr-26 10:25N 53°33' E 009°56'0 0.0
2017-Apr-26 09:58N 53°33' E 009°56'0 0.0
2017-Apr-26 09:25N 53°33' E 009°56'0 0.0
2017-Apr-26 08:58N 53°33' E 009°56'0 0.0
2017-Apr-26 08:28N 53°33' E 009°56'0 0.0
2017-Apr-26 07:58N 53°33' E 009°56'0 0.0
2017-Apr-26 07:28N 53°33' E 009°56'0 0.0
2017-Apr-26 06:58N 53°33' E 009°56'0 0.0
2017-Apr-26 06:28N 53°33' E 009°56'0 0.0
2017-Apr-26 05:58N 53°33' E 009°56'0 0.0
2017-Apr-26 05:28N 53°33' E 009°56'0 0.0
2017-Apr-26 04:58N 53°33' E 009°56'0 0.0
2017-Apr-26 04:28N 53°33' E 009°56'0 0.9
2017-Apr-26 04:00N 53°33' E 009°57'3 6.1
2017-Apr-26 03:30N 53°33' E 009°52'4 7.9
2017-Apr-26 03:00N 53°34' E 009°45'611.7
2017-Apr-26 02:30N 53°36' E 009°36'611.1
2017-Apr-26 02:01N 53°40' E 009°31'612.9
2017-Apr-26 01:31N 53°45' E 009°24'815.4
2017-Apr-26 01:00N 53°52' E 009°17'611.7
2017-Apr-26 00:30N 53°53' E 009°07'510.2
2017-Apr-26 00:00N 53°51' E 008°59'611.8
2017-Apr-25 23:30N 53°50' E 008°49'511.0
2017-Apr-25 23:00N 53°54' E 008°42'612.6
2017-Apr-25 22:30N 53°58' E 008°34'713.8
2017-Apr-25 22:00N 53°59' E 008°23'713.7
2017-Apr-25 21:30N 53°60' E 008°11'510.3
2017-Apr-25 21:00N 53°59' E 008°02'612.9
2017-Apr-25 20:30N 53°58' E 007°52'713.9
2017-Apr-25 20:00N 53°56' E 007°40'4715.6
2017-Apr-25 17:00N 53°42' E 006°24'4121.3 280 / 181006.610.8 14.013.112.0
2017-Apr-25 15:05N 53°32' E 005°17'217.6
2017-Apr-25 14:59N 53°32' E 005°15'917.4
2017-Apr-25 14:29N 53°29' E 005°01'2116.0
2017-Apr-25 13:10N 53°15' E 004°34'317.0
2017-Apr-25 13:00N 53°12' E 004°32'816.8
2017-Apr-25 12:30N 53°05' E 004°25'816.7
2017-Apr-25 12:01N 52°57' E 004°20'816.3
2017-Apr-25 11:30N 52°50' E 004°15'816.1
2017-Apr-25 11:01N 52°44' E 004°06'816.2
2017-Apr-25 10:31N 52°40' E 003°55'816.0
2017-Apr-25 09:59N 52°35' E 003°44'5914.7
2017-Apr-25 06:01N 51°49' E 002°42'115.4
2017-Apr-25 05:56N 51°49' E 002°41'715.6
2017-Apr-25 05:29N 51°44' E 002°33'715.9
2017-Apr-25 05:01N 51°38' E 002°24'5296.0
2017-Apr-25 05:00N 51°42' E 002°30'1327.1 330 / 361008.910.8 5.5-1.312.0
2017-Apr-25 04:30N 51°32' E 002°16'816.8
2017-Apr-25 04:00N 51°26' E 002°07'815.8
2017-Apr-25 03:30N 51°18' E 002°07'816.1
2017-Apr-25 03:01N 51°12' E 001°58'917.2
2017-Apr-25 02:31N 51°08' E 001°46'917.5
2017-Apr-25 02:01N 51°02' E 001°36'918.1
2017-Apr-25 01:31N 50°55' E 001°27'917.5
2017-Apr-25 01:00N 50°46' E 001°22'1316.8
2017-Apr-25 00:12N 50°36' E 001°08'717.5
2017-Apr-24 23:48N 50°32' E 000°60'617.7
2017-Apr-24 23:29N 50°30' E 000°51'1117.7
2017-Apr-24 22:51N 50°28' E 000°34'617.6
2017-Apr-24 22:30N 50°25' E 000°25'917.9
2017-Apr-24 22:00N 50°23' E 000°12'91025.9
2017-Apr-24 22:00N 50°18' E 000°00'3 6.0 350 / 301011.210.8 10.5 6.212.0
2017-Apr-24 21:31N 50°21' W 000°02'918.5
2017-Apr-24 21:01N 50°18' W 000°16'1019.4
2017-Apr-24 20:31N 50°16' W 000°31'1020.3
2017-Apr-24 20:00N 50°13' W 000°46'1020.8
2017-Apr-24 19:31N 50°10' W 001°02'1121.2
2017-Apr-24 19:00N 50°08' W 001°18'1121.5
2017-Apr-24 18:30N 50°05' W 001°34'1121.7
2017-Apr-24 18:00N 50°02' W 001°50'101154.3
2017-Apr-24 18:00N 49°54' W 002°00'2416.1 300 / 121014.210.8 12.010.112.0
2017-Apr-24 16:32N 49°54' W 002°37'119.8
2017-Apr-24 16:28N 49°54' W 002°39'919.7
2017-Apr-24 16:00N 49°51' W 002°52'1019.4
2017-Apr-24 15:29N 49°49' W 003°07'919.2
2017-Apr-24 15:01N 49°46' W 003°21'918.7
2017-Apr-24 14:30N 49°46' W 003°35'2218.3
2017-Apr-24 13:19N 49°47' W 004°09'617.9
2017-Apr-24 13:00N 49°47' W 004°18'917.8
2017-Apr-24 12:30N 49°47' W 004°31'917.7
2017-Apr-24 12:00N 49°47' W 004°45'1017.6
2017-Apr-24 11:26N 49°48' W 005°01'717.2
2017-Apr-24 11:00N 49°48' W 005°12'3116.8
2017-Apr-24 09:09N 49°51' W 006°00'316.8
2017-Apr-24 08:59N 49°54' W 006°01'815.4
2017-Apr-24 08:29N 50°02' W 006°01'919.3
2017-Apr-24 08:01N 50°11' W 006°00'1019.4
2017-Apr-24 07:29N 50°21' W 006°00'919.2
2017-Apr-24 07:00N 50°30' W 006°00'1018.9
2017-Apr-24 06:30N 50°40' W 006°00'918.6
2017-Apr-24 06:00N 50°49' W 005°60'6944.8
2017-Apr-24 06:00N 50°54' W 005°54'2815.3 270 / 101019.710.8 11.0 9.012.0
2017-Apr-24 04:11N 51°21' W 006°00'617.5
2017-Apr-24 03:52N 51°27' W 005°60'717.6
2017-Apr-24 03:30N 51°34' W 005°60'1117.8
2017-Apr-24 02:53N 51°44' W 005°58'718.3
2017-Apr-24 02:30N 51°51' W 005°55'1318.9
2017-Apr-24 01:50N 52°03' W 005°51'619.5
2017-Apr-24 01:30N 52°10' W 005°50'1020.0
2017-Apr-24 01:01N 52°20' W 005°47'1020.2
2017-Apr-24 00:30N 52°30' W 005°44'4319.2
2017-Apr-23 22:16N 53°13' W 005°43'518.9
2017-Apr-23 22:01N 53°17' W 005°48'917.5
2017-Apr-23 21:31N 53°21' W 006°01'510.1
2017-Apr-23 21:00N 53°21' W 006°09'2 2.9
2017-Apr-23 20:19N 53°21' W 006°13'0 0.0
2017-Apr-23 19:46N 53°21' W 006°13'0 0.0
2017-Apr-23 19:16N 53°21' W 006°13'0 0.0
2017-Apr-23 18:53N 53°21' W 006°13'0 0.0
2017-Apr-23 18:05N 53°21' W 006°13'0 0.0
2017-Apr-23 17:59N 53°21' W 006°13'0 0.0
2017-Apr-23 17:29N 53°21' W 006°13'0 0.0
2017-Apr-23 16:51N 53°21' W 006°13'0 0.0
2017-Apr-23 16:14N 53°21' W 006°13'0 0.0
2017-Apr-23 15:59N 53°21' W 006°13'0 0.0
2017-Apr-23 15:28N 53°21' W 006°13'0 0.0
2017-Apr-23 14:48N 53°21' W 006°13'0 0.0
2017-Apr-23 13:54N 53°21' W 006°13'0 0.0
2017-Apr-23 13:29N 53°21' W 006°13'0 0.0
2017-Apr-23 12:59N 53°21' W 006°13'0 0.0
2017-Apr-23 12:22N 53°21' W 006°13'0 0.0
2017-Apr-23 11:57N 53°21' W 006°13'0 0.0
2017-Apr-23 11:28N 53°21' W 006°13'0 0.0
2017-Apr-23 10:42N 53°21' W 006°13'0 0.0
2017-Apr-23 10:29N 53°21' W 006°13'0 0.0
2017-Apr-23 09:46N 53°21' W 006°13'0 0.0
2017-Apr-23 09:16N 53°21' W 006°13'0 0.0
2017-Apr-23 08:43N 53°21' W 006°13'0 0.0
2017-Apr-23 08:04N 53°21' W 006°13'0 0.0
2017-Apr-23 07:58N 53°21' W 006°13'0 0.0
2017-Apr-23 07:27N 53°21' W 006°13'0 0.3
2017-Apr-23 07:00N 53°21' W 006°13'1 2.6
2017-Apr-23 06:30N 53°21' W 006°11'5 9.2
2017-Apr-23 06:00N 53°20' W 006°03'612.0
2017-Apr-23 05:30N 53°19' W 005°53'815.0
2017-Apr-23 05:00N 53°14' W 005°44'916.8
2017-Apr-23 04:30N 53°07' W 005°35'3516.8
2017-Apr-23 02:26N 52°34' W 005°48'613.5
2017-Apr-23 02:00N 52°28' W 005°51'713.1
2017-Apr-23 01:29N 52°22' W 005°54'612.8
2017-Apr-23 01:00N 52°16' W 005°57'612.3
2017-Apr-23 00:30N 52°10' W 005°59'612.0
2017-Apr-23 00:00N 52°05' W 006°05'262009.4
2017-Apr-23 00:00N 51°42' W 006°24'2142.8 270 / 41029.710.8 11.0 9.012.0
2017-Apr-22 23:30N 52°02' W 006°14'612.6
2017-Apr-22 23:00N 52°00' W 006°24'612.8
2017-Apr-22 22:30N 51°59' W 006°34'713.3
2017-Apr-22 22:00N 51°57' W 006°44'713.5
2017-Apr-22 21:30N 51°55' W 006°55'713.8
2017-Apr-22 21:00N 51°54' W 007°06'713.9
2017-Apr-22 20:30N 51°52' W 007°17'713.9
2017-Apr-22 20:00N 51°50' W 007°28'714.0
2017-Apr-22 19:31N 51°49' W 007°39'714.0
2017-Apr-22 19:00N 51°47' W 007°50'5352.2
2017-Apr-22 19:00N 51°42' W 007°48'817.2 030 / 41029.710.8 13.0 6.812.0
2017-Apr-22 18:30N 51°45' W 008°00'713.7
2017-Apr-22 18:00N 51°44' W 008°11'510.6
2017-Apr-22 17:31N 51°48' W 008°16'3 6.1
2017-Apr-22 17:00N 51°51' W 008°18'0 0.0
2017-Apr-22 16:29N 51°51' W 008°18'0 0.0
2017-Apr-22 15:59N 51°51' W 008°18'0 0.0
2017-Apr-22 15:29N 51°51' W 008°18'0 0.0
2017-Apr-22 14:59N 51°51' W 008°18'0 0.0
2017-Apr-22 14:29N 51°51' W 008°18'0 0.0
2017-Apr-22 13:29N 51°51' W 008°18'0 0.0
2017-Apr-22 12:59N 51°51' W 008°18'0 0.0
2017-Apr-22 12:29N 51°51' W 008°18'0 0.0
2017-Apr-22 11:59N 51°51' W 008°18'0 0.0
2017-Apr-22 11:29N 51°51' W 008°18'0 0.0
2017-Apr-22 10:59N 51°51' W 008°18'0 0.0
2017-Apr-22 10:29N 51°51' W 008°18'0 0.0
2017-Apr-22 09:59N 51°51' W 008°18'0 0.0
2017-Apr-22 09:29N 51°51' W 008°18'0 0.0
2017-Apr-22 08:59N 51°51' W 008°18'0 0.0
2017-Apr-22 08:29N 51°51' W 008°18'0 0.0
2017-Apr-22 07:59N 51°51' W 008°18'0 0.0
2017-Apr-22 07:29N 51°51' W 008°18'0 0.0
2017-Apr-22 06:59N 51°51' W 008°18'0 0.0
2017-Apr-22 06:29N 51°51' W 008°18'0 0.0
2017-Apr-22 05:59N 51°51' W 008°18'0 0.3
2017-Apr-22 05:30N 51°51' W 008°18'3 6.8
2017-Apr-22 05:01N 51°48' W 008°16'611.9
2017-Apr-22 04:30N 51°42' W 008°12'1019.9
2017-Apr-22 04:00N 51°35' W 008°00'1020.1
2017-Apr-22 03:29N 51°28' W 007°48'1019.9
2017-Apr-22 03:00N 51°22' W 007°37'1019.7
2017-Apr-22 02:30N 51°15' W 007°25'1119.5
2017-Apr-22 01:57N 51°09' W 007°11'7135.9
2017-Apr-22 00:00N 50°18' W 005°54'31927.6 050 / 221031.310.8 11.0 9.012.0
2017-Apr-21 23:57N 50°41' W 006°28'919.7
2017-Apr-21 23:30N 50°35' W 006°17'1019.9
2017-Apr-21 22:59N 50°28' W 006°05'919.7
2017-Apr-21 22:30N 50°21' W 005°55'1020.3
2017-Apr-21 22:00N 50°11' W 005°54'1020.2
2017-Apr-21 21:30N 50°01' W 005°53'917.8
2017-Apr-21 21:00N 49°52' W 005°48'1020.3
2017-Apr-21 20:30N 49°50' W 005°33'1020.3
2017-Apr-21 20:00N 49°48' W 005°18'1020.2
2017-Apr-21 19:30N 49°45' W 005°02'1020.2
2017-Apr-21 19:00N 49°43' W 004°47'1120.2
2017-Apr-21 18:28N 49°40' W 004°31'613.0
2017-Apr-21 18:00N 49°36' W 004°24'6259.7 290 / 131031.310.8 13.0 6.812.0
2017-Apr-21 17:58N 49°38' W 004°16'920.2
2017-Apr-21 17:30N 49°36' W 004°01'1420.1
2017-Apr-21 16:49N 49°33' W 003°41'719.9
2017-Apr-21 16:28N 49°31' W 003°30'1319.9
2017-Apr-21 15:49N 49°28' W 003°11'619.8
2017-Apr-21 15:30N 49°27' W 003°02'21 2.7
2017-Apr-21 07:43N 49°28' W 002°30'0 0.2
2017-Apr-21 07:28N 49°28' W 002°30'0 0.1
2017-Apr-21 06:58N 49°28' W 002°30'0 0.0
2017-Apr-21 06:28N 49°28' W 002°30'0 0.1
2017-Apr-21 05:58N 49°28' W 002°30'0 0.0
2017-Apr-21 05:30N 49°28' W 002°30'0 0.1
2017-Apr-21 04:50N 49°28' W 002°30'2 7.1
2017-Apr-21 04:30N 49°25' W 002°30'5 9.3
2017-Apr-21 04:00N 49°23' W 002°36'3110.2
2017-Apr-21 01:01N 49°50' W 002°56'013.3
2017-Apr-21 01:00N 49°51' W 002°56'612.6
2017-Apr-21 00:30N 49°57' W 002°56'612.6
2017-Apr-21 00:00N 49°59' W 002°47'15981.9
2017-Apr-21 00:00N 50°00' W 002°24'713.0 270 / 51034.710.8 10.0 5.612.0
2017-Apr-20 23:25N 50°01' W 002°35'1213.3
2017-Apr-20 22:29N 50°06' W 002°18'3917.0
2017-Apr-20 20:10N 50°25' W 001°24'316.9
2017-Apr-20 20:00N 50°27' W 001°20'817.0
2017-Apr-20 19:30N 50°31' W 001°09'815.5
2017-Apr-20 19:00N 50°36' W 000°60'612.9
2017-Apr-20 18:30N 50°43' W 000°59'713.7
2017-Apr-20 18:00N 50°46' W 001°09'713.2
2017-Apr-20 17:30N 50°47' W 001°19'4 8.1
2017-Apr-20 17:00N 50°51' W 001°21'3 6.3
2017-Apr-20 16:31N 50°53' W 001°24'0 0.0
2017-Apr-20 15:58N 50°53' W 001°24'0 0.0
2017-Apr-20 15:28N 50°53' W 001°24'0 0.0
2017-Apr-20 14:55N 50°53' W 001°24'0 0.0
2017-Apr-20 14:28N 50°53' W 001°24'0 0.0
2017-Apr-20 13:28N 50°53' W 001°24'0 0.0
2017-Apr-20 12:55N 50°53' W 001°24'0 0.0
2017-Apr-20 12:28N 50°53' W 001°24'0 0.0
2017-Apr-20 11:58N 50°53' W 001°24'0 0.0
2017-Apr-20 11:28N 50°53' W 001°24'0 0.0
2017-Apr-20 10:58N 50°53' W 001°24'0 0.0
2017-Apr-20 10:28N 50°53' W 001°24'0 0.0
2017-Apr-20 09:58N 50°53' W 001°24'0 0.0
2017-Apr-20 09:28N 50°53' W 001°24'0 0.0
2017-Apr-20 08:58N 50°53' W 001°24'0 0.0
2017-Apr-20 08:28N 50°53' W 001°24'0 0.0
2017-Apr-20 07:58N 50°53' W 001°24'0 0.0
2017-Apr-20 07:28N 50°53' W 001°24'0 0.0
2017-Apr-20 06:58N 50°53' W 001°24'0 0.0
2017-Apr-20 06:28N 50°53' W 001°24'0 0.0
2017-Apr-20 05:58N 50°53' W 001°24'0 0.0
2017-Apr-20 05:28N 50°53' W 001°24'0 0.0
2017-Apr-20 04:58N 50°53' W 001°24'0 0.0
2017-Apr-20 04:30N 50°53' W 001°24'0 0.4
2017-Apr-20 04:01N 50°53' W 001°24'2 3.3
2017-Apr-20 03:31N 50°52' W 001°22'4 7.8
2017-Apr-20 03:01N 50°49' W 001°18'4 7.6
2017-Apr-20 02:31N 50°46' W 001°15'713.7
2017-Apr-20 02:01N 50°44' W 001°05'611.5
2017-Apr-20 01:30N 50°40' W 000°58'611.6
2017-Apr-20 01:00N 50°35' W 000°60'612.1
2017-Apr-20 00:30N 50°29' W 000°57'611.9
2017-Apr-20 00:00N 50°23' W 000°53'1812.0
2017-Apr-19 22:31N 50°06' W 000°46'013.6
2017-Apr-19 22:30N 50°06' W 000°46'713.7
2017-Apr-19 22:00N 49°59' W 000°43'713.0
2017-Apr-19 21:30N 49°54' W 000°38'714.0
2017-Apr-19 21:01N 49°48' W 000°33'714.4
2017-Apr-19 20:31N 49°42' W 000°26'714.0
2017-Apr-19 20:01N 49°36' W 000°20'713.2
2017-Apr-19 19:31N 49°33' W 000°11'612.2
2017-Apr-19 19:00N 49°31' W 000°02'611.5
2017-Apr-19 18:30N 49°29' E 000°06'0 0.3
2017-Apr-19 17:58N 49°29' E 000°06'0 0.0
2017-Apr-19 17:28N 49°29' E 000°06'0 0.0
2017-Apr-19 16:58N 49°29' E 000°06'0 0.0
2017-Apr-19 16:30N 49°29' E 000°06'0 0.0
2017-Apr-19 16:00N 49°29' E 000°06'0 0.0
2017-Apr-19 15:29N 49°29' E 000°06'0 0.0
2017-Apr-19 14:59N 49°29' E 000°06'0 0.0
2017-Apr-19 14:29N 49°29' E 000°06'0 0.0
2017-Apr-19 13:25N 49°29' E 000°06'0 0.0
2017-Apr-19 12:58N 49°29' E 000°06'0 0.0
2017-Apr-19 12:25N 49°29' E 000°06'0 0.0
2017-Apr-19 11:56N 49°29' E 000°06'0 0.0
2017-Apr-19 11:28N 49°29' E 000°06'0 0.0
2017-Apr-19 10:59N 49°29' E 000°06'0 0.0
2017-Apr-19 10:28N 49°29' E 000°06'0 0.0
2017-Apr-19 09:59N 49°29' E 000°06'0 0.0
2017-Apr-19 09:30N 49°29' E 000°06'0 0.0
2017-Apr-19 08:58N 49°29' E 000°06'0 0.0
2017-Apr-19 08:27N 49°29' E 000°06'0 0.0
2017-Apr-19 07:59N 49°29' E 000°06'0 0.0
2017-Apr-19 07:30N 49°29' E 000°06'0 0.0
2017-Apr-19 07:00N 49°29' E 000°06'0 0.0
2017-Apr-19 06:30N 49°29' E 000°06'0 0.0
2017-Apr-19 06:00N 49°29' E 000°06'0 0.0
2017-Apr-19 05:29N 49°29' E 000°06'0 0.0
2017-Apr-19 04:59N 49°29' E 000°06'0 0.1
2017-Apr-19 04:31N 49°29' E 000°06'1 2.4
2017-Apr-19 04:00N 49°29' E 000°05'612.7
2017-Apr-19 03:30N 49°31' W 000°05'713.8
2017-Apr-19 03:01N 49°33' W 000°15'816.2
2017-Apr-19 02:31N 49°36' W 000°26'815.7
2017-Apr-19 02:01N 49°40' W 000°37'1020.1
2017-Apr-19 01:31N 49°44' W 000°51'1121.4
2017-Apr-19 01:01N 49°48' W 001°06'5521.8
2017-Apr-18 22:28N 49°51' W 002°32'1320.8
2017-Apr-18 21:50N 49°49' W 002°52'1120.6
2017-Apr-18 21:19N 49°48' W 003°08'620.1
2017-Apr-18 21:00N 49°49' W 003°18'1019.9
2017-Apr-18 20:30N 49°50' W 003°33'713.2
2017-Apr-18 20:00N 49°50' W 003°44'611.1
2017-Apr-18 19:30N 49°52' W 003°52'1119.9
2017-Apr-18 18:57N 49°55' W 004°08'919.2
2017-Apr-18 18:30N 49°58' W 004°21'1019.6
2017-Apr-18 18:00N 50°01' W 004°35'161021.0
2017-Apr-18 18:00N 49°54' W 004°12'2653.9 100 / 231032.727.0 10.0 5.612.0
2017-Apr-18 17:30N 50°04' W 004°50'816.0
2017-Apr-18 17:00N 50°07' W 005°01'1 2.5
2017-Apr-18 16:30N 50°08' W 005°02'0 0.1
2017-Apr-18 15:24N 50°08' W 005°02'0 0.0
2017-Apr-18 15:00N 50°08' W 005°02'0 0.0
2017-Apr-18 14:27N 50°08' W 005°02'0 0.0
2017-Apr-18 13:26N 50°08' W 005°02'0 0.0
2017-Apr-18 12:59N 50°08' W 005°02'0 0.1
2017-Apr-18 12:20N 50°08' W 005°02'0 0.1
2017-Apr-18 11:59N 50°08' W 005°02'0 0.0
2017-Apr-18 11:17N 50°08' W 005°02'0 0.0
2017-Apr-18 10:47N 50°08' W 005°02'0 0.0
2017-Apr-18 10:20N 50°08' W 005°02'0 0.0
2017-Apr-18 09:56N 50°08' W 005°02'0 0.0
2017-Apr-18 09:29N 50°08' W 005°02'0 0.0
2017-Apr-18 08:50N 50°08' W 005°02'0 0.1
2017-Apr-18 08:29N 50°08' W 005°02'0 0.0
2017-Apr-18 07:59N 50°08' W 005°02'0 0.0
2017-Apr-18 07:29N 50°08' W 005°02'0 0.0
2017-Apr-18 06:53N 50°08' W 005°02'0 0.0
2017-Apr-18 06:29N 50°08' W 005°02'0 0.0
2017-Apr-18 05:59N 50°08' W 005°02'0 0.2
2017-Apr-18 05:30N 50°08' W 005°02'4 8.0
2017-Apr-18 05:00N 50°04' W 005°00'611.3
2017-Apr-18 04:30N 49°59' W 004°59'714.2
2017-Apr-18 04:00N 49°53' W 005°06'815.7
2017-Apr-18 03:28N 49°51' W 005°18'1940.2
2017-Apr-18 03:00N 49°48' W 005°48'838.1 020 / 181027.510.8 9.5 6.311.0
2017-Apr-18 02:46N 49°51' W 005°36'  

Dump ship's entire track history